createdAt,value
2023-03-02T00:00:52.067Z,18.07
2023-03-02T00:03:41.774Z,20.27
2023-03-02T00:06:31.205Z,19.15
2023-03-02T00:09:21.219Z,20.62
2023-03-02T00:12:09.752Z,19.87
2023-03-02T00:14:56.732Z,19.30
2023-03-02T00:17:44.106Z,21.02
2023-03-02T00:20:31.515Z,17.40
2023-03-02T00:23:19.114Z,16.87
2023-03-02T00:26:07.183Z,18.82
2023-03-02T00:28:54.582Z,20.32
2023-03-02T00:31:42.260Z,19.40
2023-03-02T00:34:31.370Z,17.23
2023-03-02T00:37:18.516Z,19.70
2023-03-02T00:40:09.556Z,18.27
2023-03-02T00:42:56.679Z,18.82
2023-03-02T00:45:44.523Z,17.90
2023-03-02T00:48:31.773Z,18.00
2023-03-02T00:51:19.677Z,19.62
2023-03-02T00:54:06.780Z,18.42
2023-03-02T00:56:54.482Z,19.70
2023-03-02T00:59:41.701Z,19.42
2023-03-02T01:02:28.989Z,18.57
2023-03-02T01:05:16.921Z,20.77
2023-03-02T01:08:04.322Z,20.97
2023-03-02T01:10:54.152Z,21.17
2023-03-02T01:13:40.953Z,20.32
2023-03-02T01:16:28.613Z,22.52
2023-03-02T01:19:16.733Z,20.90
2023-03-02T01:22:05.982Z,18.07
2023-03-02T01:24:53.400Z,17.48
2023-03-02T01:27:43.734Z,25.20
2023-03-02T01:30:31.261Z,22.67
2023-03-02T01:33:18.690Z,23.77
2023-03-02T01:36:06.637Z,20.05
2023-03-02T01:38:54.291Z,22.52
2023-03-02T01:41:41.462Z,18.75
2023-03-02T01:44:42.344Z,21.12
2023-03-02T01:47:38.860Z,21.93
2023-03-02T01:50:28.061Z,20.65
2023-03-02T01:53:16.852Z,25.72
2023-03-02T01:56:06.267Z,19.20
2023-03-02T01:58:56.919Z,19.07
2023-03-02T02:01:46.463Z,22.35
2023-03-02T02:04:35.327Z,21.68
2023-03-02T02:07:22.641Z,25.02
2023-03-02T02:10:11.231Z,19.57
2023-03-02T02:12:58.445Z,22.07
2023-03-02T02:15:46.238Z,23.02
2023-03-02T02:18:35.589Z,23.15
2023-03-02T02:21:25.208Z,20.97
2023-03-02T02:24:24.151Z,22.02
2023-03-02T02:27:12.068Z,19.05
2023-03-02T02:30:00.114Z,22.02
2023-03-02T02:32:49.788Z,24.63
2023-03-02T02:35:38.720Z,20.30
2023-03-02T02:38:26.476Z,18.92
2023-03-02T02:41:16.552Z,21.35
2023-03-02T02:44:03.323Z,21.15
2023-03-02T02:46:50.593Z,23.20
2023-03-02T02:49:41.039Z,23.42
2023-03-02T02:52:29.791Z,23.20
2023-03-02T02:55:20.469Z,21.48
2023-03-02T02:58:13.927Z,21.33
2023-03-02T03:01:02.104Z,23.50
2023-03-02T03:03:54.965Z,20.68
2023-03-02T03:06:45.690Z,19.98
2023-03-02T03:09:33.761Z,22.10
2023-03-02T03:12:23.907Z,22.58
2023-03-02T03:15:12.142Z,25.65
2023-03-02T03:18:00.194Z,25.37
2023-03-02T03:20:47.213Z,24.27
2023-03-02T03:23:36.308Z,21.77
2023-03-02T03:26:23.448Z,21.20
2023-03-02T03:29:11.382Z,22.25
2023-03-02T03:32:00.456Z,23.60
2023-03-02T03:34:47.836Z,23.10
2023-03-02T03:37:35.460Z,24.37
2023-03-02T03:40:22.935Z,25.80
2023-03-02T03:43:10.237Z,20.02
2023-03-02T03:45:57.849Z,18.23
2023-03-02T03:48:44.978Z,21.15
2023-03-02T03:51:34.051Z,20.45
2023-03-02T03:54:21.235Z,20.75
2023-03-02T03:57:10.648Z,23.32
2023-03-02T03:59:57.966Z,28.47
2023-03-02T04:02:47.285Z,25.72
2023-03-02T04:05:34.548Z,26.05
2023-03-02T04:08:22.949Z,19.30
2023-03-02T04:11:10.455Z,22.00
2023-03-02T04:13:57.618Z,20.62
2023-03-02T04:16:45.484Z,21.73
2023-03-02T04:19:35.204Z,19.12
2023-03-02T04:22:22.607Z,21.82
2023-03-02T04:25:09.891Z,21.00
2023-03-02T04:27:57.700Z,20.57
2023-03-02T04:30:44.756Z,23.02
2023-03-02T04:33:32.125Z,20.40
2023-03-02T04:36:20.036Z,22.05
2023-03-02T04:39:08.822Z,21.57
2023-03-02T04:41:56.982Z,20.05
2023-03-02T04:44:44.512Z,27.00
2023-03-02T04:47:32.231Z,21.02
2023-03-02T04:50:19.015Z,21.37
2023-03-02T04:53:06.435Z,22.10
2023-03-02T04:55:53.780Z,20.52
2023-03-02T04:58:41.188Z,19.40
2023-03-02T05:01:29.492Z,19.73
2023-03-02T05:04:17.076Z,20.12
2023-03-02T05:07:04.140Z,19.65
2023-03-02T05:09:51.624Z,23.02
2023-03-02T05:12:56.759Z,20.52
2023-03-02T05:15:44.053Z,20.82
2023-03-02T05:18:31.407Z,17.40
2023-03-02T05:21:20.038Z,21.52
2023-03-02T05:24:07.933Z,22.27
2023-03-02T05:26:55.586Z,17.52
2023-03-02T05:29:42.869Z,22.48
2023-03-02T05:32:30.061Z,18.85
2023-03-02T05:35:18.256Z,24.10
2023-03-02T05:38:05.874Z,20.08
2023-03-02T05:40:53.047Z,21.15
2023-03-02T05:43:40.875Z,21.33
2023-03-02T05:46:28.353Z,20.60
2023-03-02T05:49:15.383Z,19.27
2023-03-02T05:52:02.362Z,19.42
2023-03-02T05:54:49.546Z,19.27
2023-03-02T05:57:37.143Z,18.37
2023-03-02T06:00:25.240Z,20.97
2023-03-02T06:03:13.200Z,16.75
2023-03-02T06:06:00.770Z,20.25
2023-03-02T06:08:48.231Z,17.67
2023-03-02T06:11:42.895Z,19.00
2023-03-02T06:14:30.250Z,20.17
2023-03-02T06:17:17.809Z,17.27
2023-03-02T06:20:07.139Z,18.73
2023-03-02T06:22:54.305Z,15.75
2023-03-02T06:25:43.499Z,18.05
2023-03-02T06:28:31.023Z,17.65
2023-03-02T06:31:18.367Z,18.25
2023-03-02T06:34:05.578Z,22.23
2023-03-02T06:36:52.852Z,18.32
2023-03-02T06:39:40.518Z,15.63
2023-03-02T06:42:28.812Z,17.32
2023-03-02T06:45:15.985Z,19.00
2023-03-02T06:48:03.999Z,19.80
2023-03-02T06:50:51.414Z,18.00
2023-03-02T06:53:39.253Z,20.00
2023-03-02T06:56:29.197Z,19.25
2023-03-02T06:59:16.466Z,18.60
2023-03-02T07:02:03.525Z,18.30
2023-03-02T07:04:50.718Z,18.50
2023-03-02T07:07:38.193Z,18.42
2023-03-02T07:10:25.754Z,20.02
2023-03-02T07:13:13.144Z,15.55
2023-03-02T07:16:00.711Z,18.52
2023-03-02T07:18:49.498Z,19.10
2023-03-02T07:21:36.744Z,20.65
2023-03-02T07:24:24.110Z,17.82
2023-03-02T07:27:11.130Z,17.82
2023-03-02T07:29:58.513Z,15.18
2023-03-02T07:32:45.425Z,17.60
2023-03-02T07:35:32.685Z,18.07
2023-03-02T07:38:19.915Z,15.63
2023-03-02T07:41:09.156Z,15.50
2023-03-02T07:43:57.159Z,19.57
2023-03-02T07:46:44.470Z,16.40
2023-03-02T07:49:31.788Z,18.00
2023-03-02T07:52:19.079Z,21.02
2023-03-02T07:55:06.436Z,18.35
2023-03-02T07:57:53.405Z,15.93
2023-03-02T08:00:42.772Z,18.77
2023-03-02T08:03:30.335Z,14.78
2023-03-02T08:06:17.551Z,21.17
2023-03-02T08:09:05.667Z,16.95
2023-03-02T08:11:53.082Z,16.95
2023-03-02T08:14:40.545Z,15.95
2023-03-02T08:17:27.883Z,15.75
2023-03-02T08:20:15.156Z,14.87
2023-03-02T08:23:02.371Z,20.77
2023-03-02T08:25:49.710Z,18.67
2023-03-02T08:28:37.025Z,19.40
2023-03-02T08:31:24.155Z,20.97
2023-03-02T08:34:11.786Z,17.65
2023-03-02T08:36:58.558Z,19.67
2023-03-02T08:39:46.776Z,15.53
2023-03-02T08:42:34.471Z,18.07
2023-03-02T08:45:21.724Z,22.02
2023-03-02T08:48:09.111Z,19.37
2023-03-02T08:50:59.088Z,19.67
2023-03-02T08:53:50.414Z,17.45
2023-03-02T08:56:40.233Z,15.68
2023-03-02T08:59:27.581Z,14.28
2023-03-02T09:02:14.670Z,15.15
2023-03-02T09:05:02.218Z,16.45
2023-03-02T09:07:49.441Z,21.07
2023-03-02T09:10:36.788Z,22.05
2023-03-02T09:13:24.211Z,17.57
2023-03-02T09:16:12.112Z,20.20
2023-03-02T09:18:59.252Z,17.00
2023-03-02T09:21:46.746Z,16.17
2023-03-02T09:24:34.250Z,17.75
2023-03-02T09:27:21.308Z,19.02
2023-03-02T09:30:11.290Z,16.80
2023-03-02T09:32:58.685Z,16.42
2023-03-02T09:35:47.530Z,13.35
2023-03-02T09:38:34.776Z,18.35
2023-03-02T09:41:31.874Z,17.00
2023-03-02T09:44:37.083Z,18.00
2023-03-02T09:47:36.258Z,16.02
2023-03-02T09:50:35.530Z,16.30
2023-03-02T09:53:48.984Z,18.82
2023-03-02T09:56:39.308Z,15.38
2023-03-02T09:59:32.485Z,15.13
2023-03-02T10:02:46.602Z,15.58
2023-03-02T10:05:41.682Z,16.77
2023-03-02T10:08:32.421Z,13.65
2023-03-02T10:11:36.843Z,16.23
2023-03-02T10:14:29.541Z,15.78
2023-03-02T10:17:33.861Z,15.93
2023-03-02T10:20:24.003Z,14.18
2023-03-02T10:23:22.903Z,14.78
2023-03-02T10:26:18.799Z,13.50
2023-03-02T10:29:17.360Z,17.90
2023-03-02T10:32:25.904Z,12.10
2023-03-02T10:35:16.263Z,13.28
2023-03-02T10:38:15.333Z,14.18
2023-03-02T10:41:07.034Z,15.48
2023-03-02T10:43:57.487Z,13.75
2023-03-02T10:46:46.811Z,12.20
2023-03-02T10:49:36.559Z,13.22
2023-03-02T10:52:29.328Z,17.75
2023-03-02T10:55:17.336Z,24.05
2023-03-02T10:58:07.533Z,13.90
2023-03-02T11:01:02.890Z,15.55
2023-03-02T11:03:58.461Z,14.25
2023-03-02T11:06:45.391Z,12.68
2023-03-02T11:09:32.422Z,12.50
2023-03-02T11:12:20.399Z,12.50
2023-03-02T11:15:25.384Z,15.20
2023-03-02T11:18:39.252Z,15.30
2023-03-02T11:21:33.206Z,15.15
2023-03-02T11:24:23.767Z,15.43
2023-03-02T11:27:25.410Z,19.65
2023-03-02T11:30:16.082Z,15.48
2023-03-02T11:33:11.318Z,12.73
2023-03-02T11:36:04.784Z,16.50
2023-03-02T11:38:54.864Z,14.85
2023-03-02T11:41:42.868Z,13.78
2023-03-02T11:44:30.463Z,16.25
2023-03-02T11:47:20.326Z,9.53
2023-03-02T11:50:10.138Z,13.78
2023-03-02T11:53:00.286Z,14.13
2023-03-02T11:55:50.500Z,14.00
2023-03-02T11:58:41.659Z,12.25
2023-03-02T12:01:30.257Z,12.60
2023-03-02T12:04:34.941Z,13.68
2023-03-02T12:07:25.610Z,11.00
2023-03-02T12:10:28.589Z,17.50
2023-03-02T12:13:24.932Z,10.95
2023-03-02T12:16:23.787Z,15.43
2023-03-02T12:19:28.906Z,11.22
2023-03-02T12:22:18.936Z,14.53
2023-03-02T12:25:24.181Z,16.50
2023-03-02T12:28:26.554Z,11.35
2023-03-02T12:31:15.053Z,15.28
2023-03-02T12:34:03.796Z,12.47
2023-03-02T12:36:58.620Z,12.95
2023-03-02T12:40:12.297Z,13.72
2023-03-02T12:43:24.704Z,11.18
2023-03-02T12:46:33.054Z,12.13
2023-03-02T12:49:45.392Z,9.95
2023-03-02T12:52:34.943Z,13.75
2023-03-02T12:55:22.334Z,18.40
2023-03-02T12:58:18.412Z,14.65
2023-03-02T13:01:06.351Z,12.90
2023-03-02T13:03:54.596Z,15.30
2023-03-02T13:06:42.141Z,16.20
2023-03-02T13:09:30.445Z,12.58
2023-03-02T13:12:17.503Z,15.40
2023-03-02T13:15:06.749Z,15.58
2023-03-02T13:17:59.715Z,17.35
2023-03-02T13:20:47.822Z,16.02
2023-03-02T13:23:35.563Z,12.73
2023-03-02T13:26:28.727Z,16.42
2023-03-02T13:29:23.010Z,11.05
2023-03-02T13:32:22.618Z,15.30
2023-03-02T13:35:18.806Z,12.88
2023-03-02T13:38:23.334Z,12.65
2023-03-02T13:41:10.986Z,21.35
2023-03-02T13:43:59.242Z,13.50
2023-03-02T13:46:47.472Z,18.45
2023-03-02T13:49:36.805Z,14.53
2023-03-02T13:52:31.486Z,12.65
2023-03-02T13:55:20.985Z,18.55
2023-03-02T13:58:11.558Z,12.58
2023-03-02T14:00:58.675Z,12.53
2023-03-02T14:03:45.416Z,15.93
2023-03-02T14:06:32.892Z,11.45
2023-03-02T14:09:20.639Z,11.38
2023-03-02T14:12:08.034Z,15.58
2023-03-02T14:14:58.955Z,11.75
2023-03-02T14:17:48.168Z,16.40
2023-03-02T14:20:35.188Z,13.72
2023-03-02T14:23:22.063Z,15.58
2023-03-02T14:26:32.116Z,15.95
2023-03-02T14:29:28.029Z,11.60
2023-03-02T14:32:17.409Z,16.67
2023-03-02T14:35:05.250Z,16.42
2023-03-02T14:37:52.448Z,18.67
2023-03-02T14:40:39.830Z,16.52
2023-03-02T14:43:29.525Z,21.87
2023-03-02T14:46:16.648Z,18.45
2023-03-02T14:49:03.945Z,14.78
2023-03-02T14:52:00.237Z,14.63
2023-03-02T14:54:53.734Z,17.50
2023-03-02T14:57:43.391Z,17.30
2023-03-02T15:00:30.572Z,18.92
2023-03-02T15:03:21.329Z,15.95
2023-03-02T15:06:14.342Z,15.43
2023-03-02T15:09:02.109Z,16.25
2023-03-02T15:11:49.398Z,20.20
2023-03-02T15:14:36.964Z,14.70
2023-03-02T15:17:24.260Z,13.85
2023-03-02T15:20:18.011Z,16.82
2023-03-02T15:23:05.483Z,16.35
2023-03-02T15:25:52.652Z,15.50
2023-03-02T15:28:40.293Z,14.13
2023-03-02T15:31:28.150Z,21.05
2023-03-02T15:34:15.514Z,19.15
2023-03-02T15:37:03.019Z,19.85
2023-03-02T15:39:55.269Z,13.98
2023-03-02T15:42:42.576Z,14.07
2023-03-02T15:45:30.001Z,15.83
2023-03-02T15:48:17.310Z,22.55
2023-03-02T15:51:06.951Z,16.45
2023-03-02T15:53:54.338Z,14.10
2023-03-02T15:56:44.262Z,15.03
2023-03-02T15:59:32.205Z,14.30
2023-03-02T16:02:19.226Z,17.10
2023-03-02T16:05:06.742Z,15.15
2023-03-02T16:07:53.754Z,13.83
2023-03-02T16:10:42.926Z,14.98
2023-03-02T16:13:30.839Z,18.30
2023-03-02T16:16:18.314Z,18.30
2023-03-02T16:19:05.800Z,14.03
2023-03-02T16:21:53.362Z,11.03
2023-03-02T16:24:41.864Z,9.83
2023-03-02T16:27:30.358Z,11.35
2023-03-02T16:30:17.988Z,12.47
2023-03-02T16:33:07.586Z,8.28
2023-03-02T16:35:54.886Z,10.47
2023-03-02T16:38:42.693Z,9.28
2023-03-02T16:41:30.099Z,13.60
2023-03-02T16:44:17.654Z,11.28
2023-03-02T16:47:05.836Z,7.72
2023-03-02T16:49:56.059Z,10.00
2023-03-02T16:52:43.840Z,10.13
2023-03-02T16:55:31.479Z,8.88
2023-03-02T16:58:18.759Z,8.50
2023-03-02T17:01:07.343Z,7.58
2023-03-02T17:03:54.899Z,9.43
2023-03-02T17:06:59.720Z,9.90
2023-03-02T17:09:37.586Z,9.15
2023-03-02T17:12:25.055Z,7.95
2023-03-02T17:15:14.177Z,11.90
2023-03-02T17:18:01.666Z,9.98
2023-03-02T17:20:54.205Z,10.88
2023-03-02T17:23:41.656Z,8.05
2023-03-02T17:26:28.871Z,8.18
2023-03-02T17:29:16.153Z,7.53
2023-03-02T17:32:03.457Z,8.20
2023-03-02T17:34:51.011Z,7.85
2023-03-02T17:37:39.112Z,8.50
2023-03-02T17:40:30.288Z,7.40
2023-03-02T17:43:17.907Z,8.88
2023-03-02T17:46:13.815Z,8.40
2023-03-02T17:49:01.872Z,11.22
2023-03-02T17:51:49.091Z,9.65
2023-03-02T17:54:36.751Z,10.58
2023-03-02T17:57:24.512Z,9.33
2023-03-02T18:00:15.365Z,8.15
2023-03-02T18:03:02.861Z,7.45
2023-03-02T18:05:50.263Z,9.63
2023-03-02T18:08:37.633Z,10.48
2023-03-02T18:11:25.761Z,9.08
2023-03-02T18:14:18.553Z,8.68
2023-03-02T18:17:10.330Z,9.35
2023-03-02T18:19:57.650Z,7.62
2023-03-02T18:22:44.796Z,8.58
2023-03-02T18:25:32.348Z,10.23
2023-03-02T18:28:20.000Z,9.80
2023-03-02T18:31:08.305Z,6.12
2023-03-02T18:33:55.555Z,9.43
2023-03-02T18:36:42.871Z,10.68
2023-03-02T18:39:30.136Z,7.78
2023-03-02T18:42:17.663Z,9.28
2023-03-02T18:45:10.337Z,11.55
2023-03-02T18:47:58.919Z,10.58
2023-03-02T18:50:47.350Z,8.25
2023-03-02T18:53:34.843Z,8.93
2023-03-02T18:56:23.829Z,9.48
2023-03-02T18:59:12.040Z,9.38
2023-03-02T19:01:59.040Z,8.48
2023-03-02T19:04:47.746Z,15.15
2023-03-02T19:07:35.337Z,8.28
2023-03-02T19:10:22.837Z,11.38
2023-03-02T19:13:11.702Z,9.50
2023-03-02T19:16:00.534Z,9.30
2023-03-02T19:18:48.516Z,7.42
2023-03-02T19:21:35.822Z,7.08
2023-03-02T19:24:23.153Z,7.62
2023-03-02T19:27:11.824Z,8.78
2023-03-02T19:29:58.980Z,9.50
2023-03-02T19:32:46.773Z,9.50
2023-03-02T19:35:35.125Z,7.42
2023-03-02T19:38:22.689Z,8.88
2023-03-02T19:41:12.963Z,11.25
2023-03-02T19:44:00.612Z,8.70
2023-03-02T19:46:47.765Z,7.92
2023-03-02T19:49:36.505Z,8.15
2023-03-02T19:52:24.510Z,9.43
2023-03-02T19:55:13.546Z,11.70
2023-03-02T19:58:01.918Z,9.43
2023-03-02T20:00:49.638Z,8.23
2023-03-02T20:03:36.995Z,14.43
2023-03-02T20:06:29.483Z,10.88
2023-03-02T20:09:18.704Z,7.75
2023-03-02T20:12:08.006Z,9.90
2023-03-02T20:14:56.743Z,9.30
2023-03-02T20:17:45.550Z,10.82
2023-03-02T20:20:32.915Z,10.72
2023-03-02T20:23:20.311Z,11.50
2023-03-02T20:26:07.393Z,10.00
2023-03-02T20:28:56.106Z,12.10
2023-03-02T20:31:43.540Z,10.13
2023-03-02T20:34:31.540Z,12.23
2023-03-02T20:37:18.625Z,10.03
2023-03-02T20:40:08.000Z,10.72
2023-03-02T20:42:55.451Z,10.08
2023-03-02T20:45:43.111Z,10.80
2023-03-02T20:48:30.369Z,12.33
2023-03-02T20:51:19.358Z,11.05
2023-03-02T20:54:06.779Z,9.45
2023-03-02T20:56:54.636Z,12.88
2023-03-02T20:59:42.369Z,12.78
2023-03-02T21:02:29.686Z,11.43
2023-03-02T21:05:22.104Z,11.85
2023-03-02T21:08:13.547Z,10.05
2023-03-02T21:11:01.378Z,11.43
2023-03-02T21:13:49.618Z,12.15
2023-03-02T21:16:39.542Z,9.95
2023-03-02T21:19:29.415Z,11.68
2023-03-02T21:22:16.685Z,10.25
2023-03-02T21:25:04.237Z,11.35
2023-03-02T21:27:51.599Z,10.40
2023-03-02T21:30:40.328Z,13.00
2023-03-02T21:33:27.829Z,11.73
2023-03-02T21:36:23.700Z,12.10
2023-03-02T21:39:11.839Z,13.18
2023-03-02T21:41:59.049Z,16.12
2023-03-02T21:44:46.784Z,12.35
2023-03-02T21:47:33.825Z,12.47
2023-03-02T21:50:24.207Z,12.18
2023-03-02T21:53:11.533Z,11.08
2023-03-02T21:55:59.020Z,13.00
2023-03-02T21:58:47.141Z,13.10
2023-03-02T22:01:34.422Z,12.28
2023-03-02T22:04:21.720Z,11.78
2023-03-02T22:07:09.012Z,13.25
2023-03-02T22:09:56.206Z,13.35
2023-03-02T22:12:44.522Z,12.45
2023-03-02T22:15:32.466Z,13.93
2023-03-02T22:18:22.391Z,11.12
2023-03-02T22:21:34.472Z,15.53
2023-03-02T22:24:28.291Z,12.78
2023-03-02T22:27:24.371Z,13.40
2023-03-02T22:30:23.746Z,16.03
2023-03-02T22:33:20.087Z,13.72
2023-03-02T22:36:16.239Z,13.93
2023-03-02T22:39:06.630Z,14.75
2023-03-02T22:41:57.262Z,13.10
2023-03-02T22:44:46.644Z,15.58
2023-03-02T22:47:34.021Z,13.90
2023-03-02T22:50:29.670Z,19.40
2023-03-02T22:53:25.269Z,16.42
2023-03-02T22:56:19.670Z,12.23
2023-03-02T22:59:26.701Z,17.70
2023-03-02T23:02:20.621Z,16.55
2023-03-02T23:05:27.694Z,16.25
2023-03-02T23:08:29.523Z,15.60
2023-03-02T23:11:19.914Z,15.72
2023-03-02T23:14:25.508Z,16.42
2023-03-02T23:17:15.680Z,18.20
2023-03-02T23:20:03.317Z,19.05
2023-03-02T23:22:50.517Z,14.50
2023-03-02T23:25:37.594Z,18.12
2023-03-02T23:28:24.737Z,17.23
2023-03-02T23:31:11.826Z,19.90
2023-03-02T23:33:59.003Z,20.10
2023-03-02T23:36:46.294Z,18.32
2023-03-02T23:39:33.611Z,16.80
2023-03-02T23:42:23.062Z,17.90
2023-03-02T23:45:10.905Z,16.67
2023-03-02T23:47:59.076Z,17.65
2023-03-02T23:50:46.563Z,18.62
2023-03-02T23:53:33.815Z,22.30
2023-03-02T23:56:21.328Z,18.07
2023-03-02T23:59:08.809Z,20.17
